createdAt,value
2022-11-19T00:02:05.814Z,11.65
2022-11-19T00:04:35.216Z,12.52
2022-11-19T00:07:04.770Z,11.50
2022-11-19T00:09:32.853Z,12.30
2022-11-19T00:12:18.841Z,12.75
2022-11-19T00:14:47.019Z,13.20
2022-11-19T00:17:15.110Z,12.93
2022-11-19T00:19:44.608Z,14.20
2022-11-19T00:22:12.734Z,12.77
2022-11-19T00:24:40.776Z,14.07
2022-11-19T00:27:09.208Z,14.57
2022-11-19T00:29:37.476Z,14.57
2022-11-19T00:32:06.111Z,14.85
2022-11-19T00:34:34.191Z,13.48
2022-11-19T00:37:03.654Z,13.18
2022-11-19T00:39:31.812Z,15.38
2022-11-19T00:41:59.889Z,14.65
2022-11-19T00:44:31.434Z,14.07
2022-11-19T00:47:03.942Z,13.57
2022-11-19T00:49:32.125Z,14.88
2022-11-19T00:52:00.366Z,15.23
2022-11-19T00:54:29.962Z,15.75
2022-11-19T00:56:58.043Z,15.40
2022-11-19T00:59:26.106Z,14.55
2022-11-19T01:01:54.544Z,15.70
2022-11-19T01:04:22.733Z,14.57
2022-11-19T01:06:50.907Z,14.10
2022-11-19T01:09:19.301Z,15.27
2022-11-19T01:11:48.913Z,14.38
2022-11-19T01:14:16.892Z,13.45
2022-11-19T01:16:45.014Z,14.57
2022-11-19T01:19:16.598Z,12.60
2022-11-19T01:21:45.089Z,13.95
2022-11-19T01:24:13.233Z,12.27
2022-11-19T01:26:45.484Z,16.13
2022-11-19T01:29:15.437Z,11.80
2022-11-19T01:31:43.418Z,14.18
2022-11-19T01:34:11.601Z,14.18
2022-11-19T01:36:39.751Z,15.70
2022-11-19T01:39:07.826Z,14.02
2022-11-19T01:41:35.959Z,13.73
2022-11-19T01:44:07.087Z,13.80
2022-11-19T01:46:38.078Z,13.05
2022-11-19T01:49:09.981Z,14.05
2022-11-19T01:51:41.875Z,13.88
2022-11-19T01:54:16.665Z,13.02
2022-11-19T01:56:44.963Z,14.88
2022-11-19T01:59:18.282Z,13.88
2022-11-19T02:01:49.102Z,12.68
2022-11-19T02:04:20.434Z,13.95
2022-11-19T02:06:48.971Z,13.50
2022-11-19T02:09:17.296Z,12.43
2022-11-19T02:12:09.829Z,11.60
2022-11-19T02:14:54.799Z,15.45
2022-11-19T02:17:41.039Z,15.57
2022-11-19T02:20:34.302Z,14.85
2022-11-19T02:23:31.728Z,13.38
2022-11-19T02:26:35.884Z,12.75
2022-11-19T02:29:17.541Z,11.82
2022-11-19T02:31:55.644Z,15.27
2022-11-19T02:34:30.409Z,15.50
2022-11-19T02:37:03.665Z,15.20
2022-11-19T02:39:39.680Z,14.68
2022-11-19T02:45:45.648Z,13.20
2022-11-19T02:48:19.023Z,14.30
2022-11-19T02:50:51.148Z,17.17
2022-11-19T02:53:19.343Z,14.25
2022-11-19T02:56:08.800Z,15.40
2022-11-19T02:58:58.824Z,13.98
2022-11-19T03:01:47.201Z,15.25
2022-11-19T03:04:32.734Z,13.95
2022-11-19T03:07:05.872Z,13.82
2022-11-19T03:09:39.366Z,14.02
2022-11-19T03:12:14.487Z,16.15
2022-11-19T03:15:09.171Z,15.10
2022-11-19T03:17:53.196Z,14.75
2022-11-19T03:20:27.925Z,16.70
2022-11-19T03:23:00.393Z,12.52
2022-11-19T03:25:34.180Z,13.70
2022-11-19T03:28:06.209Z,14.88
2022-11-19T03:30:34.831Z,15.35
2022-11-19T03:33:07.905Z,16.40
2022-11-19T03:35:43.206Z,14.90
2022-11-19T03:38:17.391Z,15.15
2022-11-19T03:40:45.971Z,14.60
2022-11-19T03:43:17.030Z,12.35
2022-11-19T03:45:48.654Z,14.45
2022-11-19T03:48:19.333Z,11.20
2022-11-19T03:50:53.101Z,12.43
2022-11-19T03:53:22.222Z,12.05
2022-11-19T03:55:54.887Z,11.90
2022-11-19T03:58:25.380Z,12.55
2022-11-19T04:00:54.027Z,10.88
2022-11-19T04:03:22.069Z,14.80
2022-11-19T04:05:51.407Z,12.25
2022-11-19T04:08:19.431Z,12.05
2022-11-19T04:10:47.467Z,11.48
2022-11-19T04:13:15.673Z,11.93
2022-11-19T04:15:43.738Z,12.43
2022-11-19T04:18:12.199Z,12.40
2022-11-19T04:20:40.112Z,14.48
2022-11-19T04:23:09.477Z,13.32
2022-11-19T04:25:37.973Z,12.70
2022-11-19T04:28:06.054Z,14.48
2022-11-19T04:30:34.046Z,13.32
2022-11-19T04:33:02.018Z,13.13
2022-11-19T04:35:30.207Z,12.75
2022-11-19T04:37:58.386Z,13.98
2022-11-19T04:40:27.676Z,12.93
2022-11-19T04:42:55.733Z,14.05
2022-11-19T04:45:23.727Z,14.77
2022-11-19T04:47:51.823Z,13.18
2022-11-19T04:50:19.927Z,14.25
2022-11-19T04:52:48.005Z,13.32
2022-11-19T04:55:16.177Z,13.75
2022-11-19T04:57:45.819Z,13.15
2022-11-19T05:00:15.184Z,13.93
2022-11-19T05:02:43.335Z,15.60
2022-11-19T05:05:11.380Z,13.32
2022-11-19T05:07:39.437Z,14.27
2022-11-19T05:10:08.240Z,14.70
2022-11-19T05:12:36.364Z,13.85
2022-11-19T05:15:06.989Z,15.30
2022-11-19T05:17:35.057Z,13.90
2022-11-19T05:20:03.042Z,13.43
2022-11-19T05:22:31.149Z,14.48
2022-11-19T05:24:59.232Z,14.50
2022-11-19T05:27:53.168Z,14.38
2022-11-19T05:30:22.676Z,13.82
2022-11-19T05:32:50.660Z,17.65
2022-11-19T05:35:18.839Z,18.73
2022-11-19T05:37:49.892Z,17.77
2022-11-19T05:40:18.844Z,15.70
2022-11-19T05:42:46.952Z,15.73
2022-11-19T05:45:14.974Z,19.80
2022-11-19T05:47:48.394Z,18.75
2022-11-19T05:50:17.161Z,18.40
2022-11-19T05:52:51.248Z,18.42
2022-11-19T05:55:19.447Z,18.95
2022-11-19T05:57:47.926Z,18.65
2022-11-19T06:00:17.304Z,19.00
2022-11-19T06:02:47.251Z,20.20
2022-11-19T06:05:15.639Z,20.00
2022-11-19T06:07:43.769Z,21.92
2022-11-19T06:10:12.159Z,19.48
2022-11-19T06:12:45.349Z,20.08
2022-11-19T06:15:14.888Z,21.48
2022-11-19T06:17:43.313Z,21.70
2022-11-19T06:20:13.230Z,24.42
2022-11-19T06:22:41.605Z,20.17
2022-11-19T06:25:10.440Z,17.88
2022-11-19T06:27:38.605Z,20.35
2022-11-19T06:30:08.500Z,19.95
2022-11-19T06:32:36.900Z,17.38
2022-11-19T06:35:05.584Z,18.45
2022-11-19T06:37:35.080Z,19.08
2022-11-19T06:40:03.459Z,18.33
2022-11-19T06:42:37.672Z,17.83
2022-11-19T06:45:08.339Z,23.00
2022-11-19T06:47:37.061Z,19.05
2022-11-19T06:50:06.592Z,17.00
2022-11-19T06:52:36.521Z,19.60
2022-11-19T06:55:05.209Z,18.50
2022-11-19T06:57:33.541Z,17.33
2022-11-19T07:00:01.866Z,19.38
2022-11-19T07:02:30.250Z,19.67
2022-11-19T07:04:58.567Z,21.80
2022-11-19T07:07:26.796Z,20.58
2022-11-19T07:09:56.710Z,20.05
2022-11-19T07:12:24.920Z,19.38
2022-11-19T07:14:53.102Z,21.45
2022-11-19T07:17:21.234Z,21.00
2022-11-19T07:19:49.319Z,20.95
2022-11-19T07:22:17.425Z,19.48
2022-11-19T07:24:45.646Z,19.23
2022-11-19T07:27:17.145Z,20.35
2022-11-19T07:29:45.380Z,18.48
2022-11-19T07:32:13.481Z,19.48
2022-11-19T07:34:41.811Z,17.08
2022-11-19T07:37:10.392Z,20.45
2022-11-19T07:39:38.642Z,20.48
2022-11-19T07:42:24.469Z,20.75
2022-11-19T07:44:55.368Z,39.72
2022-11-19T07:47:23.692Z,23.25
2022-11-19T07:49:52.060Z,19.23
2022-11-19T07:52:20.932Z,20.02
2022-11-19T07:54:48.921Z,19.45
2022-11-19T07:57:17.429Z,20.92
2022-11-19T07:59:45.675Z,20.90
2022-11-19T08:02:15.675Z,22.92
2022-11-19T08:04:43.747Z,19.75
2022-11-19T08:07:12.460Z,18.35
2022-11-19T08:09:40.891Z,22.30
2022-11-19T08:12:09.321Z,21.77
2022-11-19T08:14:37.708Z,20.35
2022-11-19T08:17:23.637Z,20.83
2022-11-19T08:19:53.747Z,21.20
2022-11-19T08:22:21.778Z,20.20
2022-11-19T08:24:50.389Z,20.08
2022-11-19T08:27:19.672Z,20.60
2022-11-19T08:29:47.884Z,20.58
2022-11-19T08:32:16.285Z,19.70
2022-11-19T08:34:44.980Z,19.23
2022-11-19T08:37:16.263Z,21.30
2022-11-19T08:39:44.683Z,18.38
2022-11-19T08:42:30.436Z,20.10
2022-11-19T08:45:00.156Z,22.88
2022-11-19T08:47:28.968Z,21.98
2022-11-19T08:49:57.814Z,20.77
2022-11-19T08:52:27.627Z,22.90
2022-11-19T08:54:56.295Z,24.77
2022-11-19T08:57:25.057Z,21.48
2022-11-19T08:59:53.737Z,22.63
2022-11-19T09:02:22.186Z,20.20
2022-11-19T09:04:50.798Z,22.20
2022-11-19T09:07:19.397Z,19.88
2022-11-19T09:09:49.378Z,21.90
2022-11-19T09:12:18.273Z,20.63
2022-11-19T09:14:46.633Z,22.15
2022-11-19T09:17:15.277Z,21.65
2022-11-19T09:19:43.623Z,20.38
2022-11-19T09:22:11.868Z,19.17
2022-11-19T09:24:40.676Z,21.10
2022-11-19T09:27:10.850Z,16.73
2022-11-19T09:29:39.737Z,20.70
2022-11-19T09:32:08.128Z,19.40
2022-11-19T09:34:43.361Z,18.98
2022-11-19T09:37:13.358Z,20.48
2022-11-19T09:39:41.767Z,20.52
2022-11-19T09:42:17.816Z,18.73
2022-11-19T09:44:59.351Z,19.88
2022-11-19T09:47:41.336Z,20.67
2022-11-19T09:50:16.871Z,24.08
2022-11-19T09:52:48.851Z,22.73
2022-11-19T09:55:21.044Z,20.85
2022-11-19T09:57:55.766Z,25.13
2022-11-19T10:00:27.085Z,24.17
2022-11-19T10:02:56.879Z,22.17
2022-11-19T10:05:32.303Z,24.98
2022-11-19T10:08:14.136Z,25.27
2022-11-19T10:10:47.367Z,22.98
2022-11-19T10:13:35.924Z,24.13
2022-11-19T10:16:23.879Z,27.27
2022-11-19T10:19:01.972Z,25.13
2022-11-19T10:21:35.041Z,23.23
2022-11-19T10:24:18.059Z,27.48
2022-11-19T10:26:56.582Z,24.55
2022-11-19T10:29:30.466Z,21.20
2022-11-19T10:32:20.048Z,20.75
2022-11-19T10:34:49.879Z,18.88
2022-11-19T10:37:21.744Z,14.55
2022-11-19T10:39:57.169Z,14.35
2022-11-19T10:42:29.206Z,15.68
2022-11-19T10:45:02.829Z,13.57
2022-11-19T10:47:39.996Z,16.08
2022-11-19T10:50:16.276Z,16.65
2022-11-19T10:52:51.006Z,13.73
2022-11-19T10:55:25.480Z,14.48
2022-11-19T10:58:06.749Z,13.13
2022-11-19T11:00:38.429Z,12.65
2022-11-19T11:03:16.420Z,12.82
2022-11-19T11:05:56.901Z,12.13
2022-11-19T11:08:25.785Z,9.43
2022-11-19T11:10:54.533Z,11.45
2022-11-19T11:13:56.167Z,10.30
2022-11-19T11:16:31.553Z,9.68
2022-11-19T11:19:02.954Z,11.50
2022-11-19T11:21:35.681Z,12.32
2022-11-19T11:24:05.874Z,10.55
2022-11-19T11:26:36.356Z,12.00
2022-11-19T11:29:08.748Z,10.77
2022-11-19T11:31:41.308Z,10.05
2022-11-19T11:34:16.055Z,9.23
2022-11-19T11:36:45.394Z,9.63
2022-11-19T11:39:27.289Z,10.02
2022-11-19T11:42:06.631Z,10.07
2022-11-19T11:44:38.427Z,9.18
2022-11-19T11:47:16.011Z,9.60
2022-11-19T11:49:47.266Z,9.05
2022-11-19T11:52:21.046Z,10.02
2022-11-19T11:54:58.374Z,9.40
2022-11-19T11:57:30.036Z,9.82
2022-11-19T11:59:59.149Z,11.25
2022-11-19T12:02:31.493Z,9.05
2022-11-19T12:05:02.488Z,9.30
2022-11-19T12:07:59.209Z,9.85
2022-11-19T12:10:35.058Z,9.25
2022-11-19T12:13:22.741Z,8.95
2022-11-19T12:16:03.171Z,9.15
2022-11-19T12:18:42.186Z,9.77
2022-11-19T12:21:13.007Z,10.75
2022-11-19T12:23:56.980Z,10.65
2022-11-19T12:26:36.367Z,10.45
2022-11-19T12:29:16.403Z,10.50
2022-11-19T12:32:07.571Z,10.82
2022-11-19T12:37:45.675Z,10.65
2022-11-19T12:40:38.871Z,9.00
2022-11-19T12:43:23.794Z,8.45
2022-11-19T12:46:03.854Z,8.85
2022-11-19T12:48:51.418Z,7.65
2022-11-19T12:51:35.214Z,8.32
2022-11-19T12:54:34.603Z,10.68
2022-11-19T12:57:25.245Z,9.70
2022-11-19T13:00:08.865Z,10.25
2022-11-19T13:02:47.099Z,10.32
2022-11-19T13:05:20.894Z,9.77
2022-11-19T13:07:55.210Z,10.98
2022-11-19T13:10:29.809Z,10.10
2022-11-19T13:13:01.607Z,10.35
2022-11-19T13:15:36.067Z,9.18
2022-11-19T13:18:11.089Z,11.35
2022-11-19T13:20:47.003Z,10.13
2022-11-19T13:23:20.367Z,9.05
2022-11-19T13:25:57.952Z,10.07
2022-11-19T13:28:33.660Z,9.00
2022-11-19T13:31:08.705Z,10.85
2022-11-19T13:33:44.807Z,10.35
2022-11-19T13:36:20.725Z,8.70
2022-11-19T13:38:54.386Z,8.90
2022-11-19T13:41:31.189Z,10.60
2022-11-19T13:44:18.493Z,10.43
2022-11-19T13:46:51.601Z,9.45
2022-11-19T13:49:26.225Z,9.27
2022-11-19T13:51:58.331Z,9.85
2022-11-19T13:54:30.492Z,9.45
2022-11-19T13:57:01.089Z,9.65
2022-11-19T13:59:37.798Z,9.48
2022-11-19T14:02:49.863Z,10.00
2022-11-19T14:06:02.003Z,9.93
2022-11-19T14:08:52.787Z,8.13
2022-11-19T14:11:46.317Z,10.82
2022-11-19T14:14:46.363Z,9.57
2022-11-19T14:17:42.048Z,8.98
2022-11-19T14:20:50.423Z,10.63
2022-11-19T14:23:59.776Z,10.18
2022-11-19T14:27:18.332Z,10.40
2022-11-19T14:30:01.505Z,12.25
2022-11-19T14:32:45.381Z,9.60
2022-11-19T14:35:36.707Z,10.40
2022-11-19T14:38:35.245Z,8.98
2022-11-19T14:41:30.082Z,10.85
2022-11-19T14:44:32.165Z,11.60
2022-11-19T14:47:34.506Z,12.43
2022-11-19T14:50:08.431Z,12.00
2022-11-19T14:52:40.522Z,10.60
2022-11-19T14:55:22.813Z,11.20
2022-11-19T14:57:57.695Z,12.60
2022-11-19T15:00:33.189Z,12.38
2022-11-19T15:03:04.568Z,10.13
2022-11-19T15:05:40.783Z,11.82
2022-11-19T15:09:00.681Z,9.88
2022-11-19T15:12:01.206Z,12.85
2022-11-19T15:15:01.640Z,10.23
2022-11-19T15:17:31.753Z,10.15
2022-11-19T15:20:23.172Z,11.10
2022-11-19T15:23:05.402Z,13.45
2022-11-19T15:25:48.301Z,8.75
2022-11-19T15:28:29.470Z,10.35
2022-11-19T15:31:21.802Z,9.93
2022-11-19T15:34:15.179Z,9.18
2022-11-19T15:36:46.874Z,11.02
2022-11-19T15:39:23.280Z,10.40
2022-11-19T15:42:01.930Z,10.18
2022-11-19T15:44:38.843Z,11.90
2022-11-19T15:47:13.617Z,11.65
2022-11-19T15:49:45.475Z,11.95
2022-11-19T15:52:21.549Z,11.55
2022-11-19T15:54:51.954Z,10.35
2022-11-19T15:57:26.373Z,10.38
2022-11-19T15:59:59.860Z,10.38
2022-11-19T16:02:34.707Z,10.52
2022-11-19T16:05:03.695Z,11.90
2022-11-19T16:07:32.528Z,12.35
2022-11-19T16:10:03.139Z,12.45
2022-11-19T16:12:49.204Z,11.73
2022-11-19T16:15:37.985Z,11.52
2022-11-19T16:18:14.124Z,12.00
2022-11-19T16:20:46.598Z,13.27
2022-11-19T16:23:19.220Z,12.60
2022-11-19T16:25:50.215Z,11.40
2022-11-19T16:28:21.257Z,11.40
2022-11-19T16:30:53.521Z,13.85
2022-11-19T16:33:24.258Z,12.30
2022-11-19T16:35:54.069Z,12.50
2022-11-19T16:38:28.144Z,12.07
2022-11-19T16:41:16.775Z,11.40
2022-11-19T16:43:48.777Z,12.27
2022-11-19T16:46:21.396Z,11.23
2022-11-19T16:48:59.181Z,12.65
2022-11-19T16:51:34.662Z,10.80
2022-11-19T16:54:04.858Z,12.65
2022-11-19T16:56:44.590Z,11.95
2022-11-19T16:59:20.465Z,10.48
2022-11-19T17:01:58.554Z,10.60
2022-11-19T17:04:30.394Z,10.55
2022-11-19T17:07:00.196Z,12.35
2022-11-19T17:09:37.133Z,11.40
2022-11-19T17:12:23.793Z,11.90
2022-11-19T17:14:58.326Z,11.80
2022-11-19T17:17:39.922Z,12.88
2022-11-19T17:21:00.648Z,12.07
2022-11-19T17:23:31.479Z,11.52
2022-11-19T17:26:02.094Z,11.70
2022-11-19T17:28:38.102Z,12.18
2022-11-19T17:31:15.561Z,11.57
2022-11-19T17:33:57.173Z,11.68
2022-11-19T17:36:27.856Z,11.25
2022-11-19T17:38:56.577Z,11.57
2022-11-19T17:41:45.303Z,9.50
2022-11-19T17:44:34.897Z,12.15
2022-11-19T17:47:07.410Z,11.50
2022-11-19T17:49:47.065Z,10.75
2022-11-19T17:52:22.669Z,11.27
2022-11-19T17:54:51.429Z,12.35
2022-11-19T17:57:20.220Z,12.10
2022-11-19T17:59:50.533Z,14.18
2022-11-19T18:02:20.982Z,12.20
2022-11-19T18:04:50.197Z,12.23
2022-11-19T18:07:18.959Z,13.20
2022-11-19T18:09:47.779Z,13.27
2022-11-19T18:12:18.755Z,17.75
2022-11-19T18:14:48.166Z,23.48
2022-11-19T18:17:18.505Z,23.70
2022-11-19T18:19:47.266Z,15.65
2022-11-19T18:22:19.369Z,13.05
2022-11-19T18:24:49.166Z,13.98
2022-11-19T18:27:17.973Z,14.77
2022-11-19T18:29:49.641Z,12.38
2022-11-19T18:32:20.653Z,12.13
2022-11-19T18:34:49.236Z,12.60
2022-11-19T18:37:18.029Z,12.77
2022-11-19T18:39:48.152Z,14.00
2022-11-19T18:42:16.704Z,15.57
2022-11-19T18:44:44.185Z,15.25
2022-11-19T18:47:14.242Z,13.80
2022-11-19T18:49:44.608Z,14.25
2022-11-19T18:52:15.713Z,13.10
2022-11-19T18:54:44.543Z,14.05
2022-11-19T18:57:13.658Z,15.05
2022-11-19T18:59:42.527Z,12.52
2022-11-19T19:02:11.903Z,11.65
2022-11-19T19:04:40.404Z,12.13
2022-11-19T19:07:10.270Z,11.20
2022-11-19T19:09:38.616Z,11.05
2022-11-19T19:12:20.414Z,11.25
2022-11-19T19:14:51.653Z,11.57
2022-11-19T19:17:20.838Z,11.07
2022-11-19T19:19:49.854Z,11.55
2022-11-19T19:22:20.804Z,11.57
2022-11-19T19:24:53.820Z,13.00
2022-11-19T19:27:25.903Z,13.25
2022-11-19T19:29:55.805Z,13.32
2022-11-19T19:32:24.701Z,11.70
2022-11-19T19:34:53.151Z,13.43
2022-11-19T19:37:23.397Z,12.02
2022-11-19T19:39:51.769Z,13.60
2022-11-19T19:42:20.133Z,16.50
2022-11-19T19:44:48.974Z,13.73
2022-11-19T19:47:17.458Z,12.20
2022-11-19T19:49:46.681Z,13.07
2022-11-19T19:52:15.351Z,12.48
2022-11-19T19:54:45.553Z,13.20
2022-11-19T19:57:16.380Z,14.75
2022-11-19T19:59:44.969Z,12.13
2022-11-19T20:02:13.489Z,12.98
2022-11-19T20:04:42.216Z,13.80
2022-11-19T20:07:10.648Z,14.63
2022-11-19T20:09:41.844Z,14.30
2022-11-19T20:12:14.376Z,11.48
2022-11-19T20:14:44.265Z,13.85
2022-11-19T20:17:16.099Z,13.68
2022-11-19T20:19:45.064Z,12.13
2022-11-19T20:22:13.527Z,13.45
2022-11-19T20:24:42.444Z,10.70
2022-11-19T20:27:12.165Z,11.35
2022-11-19T20:29:40.730Z,12.63
2022-11-19T20:32:09.126Z,10.85
2022-11-19T20:34:37.490Z,12.40
2022-11-19T20:37:05.819Z,12.35
2022-11-19T20:39:34.358Z,12.82
2022-11-19T20:42:20.252Z,13.93
2022-11-19T20:44:50.179Z,12.48
2022-11-19T20:47:18.528Z,12.68
2022-11-19T20:49:47.007Z,11.93
2022-11-19T20:52:17.259Z,12.10
2022-11-19T20:54:45.602Z,14.10
2022-11-19T20:57:14.247Z,13.30
2022-11-19T20:59:42.770Z,13.68
2022-11-19T21:02:12.671Z,15.45
2022-11-19T21:04:40.964Z,12.43
2022-11-19T21:07:09.285Z,12.95
2022-11-19T21:09:40.174Z,15.65
2022-11-19T21:12:09.334Z,13.68
2022-11-19T21:14:37.709Z,14.02
2022-11-19T21:17:05.847Z,12.73
2022-11-19T21:19:35.767Z,15.55
2022-11-19T21:22:04.329Z,12.80
2022-11-19T21:24:32.695Z,13.93
2022-11-19T21:27:01.071Z,14.85
2022-11-19T21:29:29.248Z,15.35
2022-11-19T21:31:57.505Z,14.13
2022-11-19T21:34:25.998Z,17.40
2022-11-19T21:36:58.211Z,16.80
2022-11-19T21:39:27.175Z,14.80
2022-11-19T21:41:55.396Z,14.25
2022-11-19T21:44:23.876Z,13.55
2022-11-19T21:46:52.359Z,16.70
2022-11-19T21:49:21.030Z,14.65
2022-11-19T21:51:49.765Z,15.45
2022-11-19T21:54:20.025Z,13.95
2022-11-19T21:56:48.384Z,14.73
2022-11-19T21:59:17.252Z,13.20
2022-11-19T22:01:48.154Z,12.43
2022-11-19T22:04:18.795Z,15.98
2022-11-19T22:06:47.022Z,15.98
2022-11-19T22:09:15.477Z,14.77
2022-11-19T22:11:45.734Z,14.82
2022-11-19T22:14:13.987Z,14.85
2022-11-19T22:16:42.248Z,14.75
2022-11-19T22:19:12.339Z,13.50
2022-11-19T22:21:40.744Z,15.77
2022-11-19T22:24:09.040Z,14.02
2022-11-19T22:26:37.309Z,13.65
2022-11-19T22:29:07.425Z,16.05
2022-11-19T22:31:35.641Z,15.82
2022-11-19T22:34:04.008Z,15.82
2022-11-19T22:36:33.771Z,15.68
2022-11-19T22:39:02.156Z,14.38
2022-11-19T22:41:30.437Z,17.13
2022-11-19T22:43:59.420Z,15.68
2022-11-19T22:46:29.444Z,16.70
2022-11-19T22:48:58.149Z,16.55
2022-11-19T22:51:27.569Z,15.55
2022-11-19T22:53:56.519Z,16.48
2022-11-19T22:56:27.451Z,17.00
2022-11-19T22:58:55.815Z,18.90
2022-11-19T23:01:26.483Z,16.17
2022-11-19T23:03:59.049Z,16.77
2022-11-19T23:06:27.700Z,13.95
2022-11-19T23:08:56.173Z,14.45
2022-11-19T23:11:39.073Z,15.77
2022-11-19T23:14:09.147Z,15.55
2022-11-19T23:16:37.819Z,15.75
2022-11-19T23:19:08.778Z,14.10
2022-11-19T23:21:37.451Z,13.52
2022-11-19T23:24:06.741Z,14.02
2022-11-19T23:26:35.686Z,14.75
2022-11-19T23:29:04.535Z,13.73
2022-11-19T23:31:35.014Z,14.27
2022-11-19T23:34:03.412Z,14.90
2022-11-19T23:36:35.191Z,14.15
2022-11-19T23:39:05.467Z,13.52
2022-11-19T23:41:35.270Z,12.80
2022-11-19T23:44:04.109Z,16.33
2022-11-19T23:46:34.023Z,13.80
2022-11-19T23:49:03.125Z,12.43
2022-11-19T23:51:34.889Z,14.60
2022-11-19T23:54:04.128Z,12.95
2022-11-19T23:56:35.887Z,15.07
2022-11-19T23:59:05.948Z,13.27
